createdAt,value
2023-02-17T00:00:59.297Z,46.74
2023-02-17T00:01:59.282Z,49.20
2023-02-17T00:02:59.284Z,60.18
2023-02-17T00:03:59.321Z,45.88
2023-02-17T00:04:59.257Z,49.03
2023-02-17T00:05:59.244Z,45.10
2023-02-17T00:06:59.238Z,44.81
2023-02-17T00:07:59.232Z,49.71
2023-02-17T00:08:59.258Z,43.65
2023-02-17T00:09:59.223Z,42.39
2023-02-17T00:10:59.210Z,46.37
2023-02-17T00:11:59.201Z,47.54
2023-02-17T00:12:59.186Z,47.50
2023-02-17T00:13:59.219Z,44.66
2023-02-17T00:14:59.176Z,49.01
2023-02-17T00:15:59.180Z,47.06
2023-02-17T00:16:59.157Z,43.36
2023-02-17T00:17:59.150Z,42.46
2023-02-17T00:18:59.166Z,43.36
2023-02-17T00:19:59.137Z,46.81
2023-02-17T00:20:59.124Z,46.73
2023-02-17T00:21:59.122Z,44.93
2023-02-17T00:22:59.114Z,45.10
2023-02-17T00:23:59.123Z,46.72
2023-02-17T00:25:00.118Z,48.27
2023-02-17T00:25:59.092Z,44.75
2023-02-17T00:26:59.086Z,47.73
2023-02-17T00:27:59.088Z,46.79
2023-02-17T00:28:59.092Z,44.88
2023-02-17T00:29:59.109Z,46.15
2023-02-17T00:30:59.101Z,49.35
2023-02-17T00:31:59.114Z,48.12
2023-02-17T00:32:59.046Z,44.72
2023-02-17T00:33:59.062Z,49.12
2023-02-17T00:34:59.021Z,47.09
2023-02-17T00:35:59.014Z,47.25
2023-02-17T00:36:59.020Z,45.49
2023-02-17T00:37:58.997Z,52.98
2023-02-17T00:38:59.026Z,51.11
2023-02-17T00:39:58.981Z,46.09
2023-02-17T00:40:58.975Z,47.72
2023-02-17T00:41:58.968Z,47.80
2023-02-17T00:42:58.962Z,49.27
2023-02-17T00:43:58.983Z,43.11
2023-02-17T00:44:58.947Z,43.95
2023-02-17T00:45:58.948Z,46.92
2023-02-17T00:46:58.937Z,43.33
2023-02-17T00:47:58.917Z,47.48
2023-02-17T00:48:58.940Z,45.74
2023-02-17T00:49:58.901Z,43.49
2023-02-17T00:50:58.904Z,44.51
2023-02-17T00:51:58.902Z,46.60
2023-02-17T00:52:58.889Z,47.73
2023-02-17T00:53:58.919Z,56.53
2023-02-17T00:54:58.877Z,44.27
2023-02-17T00:55:58.872Z,52.40
2023-02-17T00:56:58.870Z,46.95
2023-02-17T00:57:58.859Z,45.44
2023-02-17T00:58:58.870Z,52.20
2023-02-17T00:59:58.851Z,48.52
2023-02-17T01:00:58.822Z,48.83
2023-02-17T01:01:58.831Z,43.48
2023-02-17T01:02:58.821Z,43.33
2023-02-17T01:03:58.814Z,50.00
2023-02-17T01:04:58.865Z,43.59
2023-02-17T01:05:58.797Z,51.21
2023-02-17T01:06:58.785Z,43.19
2023-02-17T01:07:58.782Z,43.23
2023-02-17T01:08:58.774Z,43.17
2023-02-17T01:09:58.812Z,44.37
2023-02-17T01:10:58.776Z,47.92
2023-02-17T01:11:58.750Z,47.24
2023-02-17T01:12:58.743Z,49.77
2023-02-17T01:13:58.726Z,62.21
2023-02-17T01:14:58.754Z,47.00
2023-02-17T01:15:58.732Z,45.36
2023-02-17T01:16:58.710Z,48.84
2023-02-17T01:17:58.701Z,53.91
2023-02-17T01:18:58.700Z,43.49
2023-02-17T01:19:58.717Z,47.49
2023-02-17T01:20:58.679Z,53.20
2023-02-17T01:21:58.669Z,48.08
2023-02-17T01:22:58.658Z,43.54
2023-02-17T01:23:59.505Z,43.26
2023-02-17T01:24:58.672Z,47.02
2023-02-17T01:25:58.662Z,55.66
2023-02-17T01:26:58.636Z,46.09
2023-02-17T01:27:58.625Z,47.43
2023-02-17T01:28:58.616Z,44.96
2023-02-17T01:29:58.677Z,44.25
2023-02-17T01:30:58.675Z,53.66
2023-02-17T01:31:58.627Z,54.53
2023-02-17T01:32:58.592Z,50.72
2023-02-17T01:33:58.580Z,50.08
2023-02-17T01:34:58.602Z,44.01
2023-02-17T01:35:58.566Z,44.61
2023-02-17T01:36:58.559Z,46.44
2023-02-17T01:37:58.549Z,47.33
2023-02-17T01:38:58.537Z,57.25
2023-02-17T01:39:58.561Z,48.56
2023-02-17T01:40:58.525Z,43.18
2023-02-17T01:41:58.515Z,43.21
2023-02-17T01:42:58.524Z,48.05
2023-02-17T01:43:58.511Z,46.52
2023-02-17T01:44:58.516Z,43.29
2023-02-17T01:45:58.497Z,43.22
2023-02-17T01:46:58.504Z,46.18
2023-02-17T01:47:58.473Z,46.51
2023-02-17T01:48:58.458Z,46.51
2023-02-17T01:49:58.527Z,57.64
2023-02-17T01:50:58.445Z,55.18
2023-02-17T01:51:58.442Z,48.91
2023-02-17T01:52:58.440Z,46.46
2023-02-17T01:53:58.423Z,44.82
2023-02-17T01:54:58.433Z,47.03
2023-02-17T01:55:58.411Z,57.91
2023-02-17T01:56:58.485Z,45.05
2023-02-17T01:57:58.388Z,46.54
2023-02-17T01:58:58.401Z,44.23
2023-02-17T01:59:58.378Z,47.43
2023-02-17T02:00:58.400Z,45.19
2023-02-17T02:01:58.546Z,42.77
2023-02-17T02:02:58.508Z,44.68
2023-02-17T02:03:58.350Z,51.53
2023-02-17T02:04:58.335Z,44.83
2023-02-17T02:05:58.352Z,46.61
2023-02-17T02:06:58.324Z,47.43
2023-02-17T02:07:58.322Z,51.73
2023-02-17T02:08:58.309Z,48.31
2023-02-17T02:09:58.302Z,46.67
2023-02-17T02:10:58.323Z,43.61
2023-02-17T02:11:58.283Z,51.27
2023-02-17T02:12:58.280Z,49.18
2023-02-17T02:13:58.275Z,47.24
2023-02-17T02:14:58.269Z,43.33
2023-02-17T02:15:58.281Z,48.26
2023-02-17T02:16:58.265Z,50.00
2023-02-17T02:17:58.247Z,52.52
2023-02-17T02:18:58.236Z,49.14
2023-02-17T02:19:58.234Z,43.47
2023-02-17T02:20:58.243Z,48.21
2023-02-17T02:21:58.215Z,48.65
2023-02-17T02:22:58.201Z,49.75
2023-02-17T02:23:58.198Z,49.63
2023-02-17T02:24:58.195Z,45.72
2023-02-17T02:25:58.211Z,49.44
2023-02-17T02:26:58.184Z,44.97
2023-02-17T02:27:58.176Z,50.06
2023-02-17T02:28:58.162Z,43.29
2023-02-17T02:29:58.195Z,44.42
2023-02-17T02:30:58.197Z,50.98
2023-02-17T02:31:58.214Z,55.63
2023-02-17T02:32:58.133Z,43.47
2023-02-17T02:33:58.135Z,44.78
2023-02-17T02:34:58.110Z,58.54
2023-02-17T02:35:58.143Z,45.01
2023-02-17T02:36:58.093Z,47.28
2023-02-17T02:37:58.099Z,47.68
2023-02-17T02:38:58.081Z,56.76
2023-02-17T02:39:58.083Z,49.87
2023-02-17T02:40:58.094Z,48.74
2023-02-17T02:41:58.067Z,58.56
2023-02-17T02:42:58.060Z,46.46
2023-02-17T02:43:58.044Z,46.49
2023-02-17T02:44:58.064Z,46.98
2023-02-17T02:45:58.070Z,55.75
2023-02-17T02:46:58.027Z,47.55
2023-02-17T02:47:58.013Z,45.52
2023-02-17T02:48:58.010Z,44.93
2023-02-17T02:49:58.000Z,44.34
2023-02-17T02:50:58.033Z,43.82
2023-02-17T02:51:57.979Z,57.24
2023-02-17T02:52:57.994Z,47.72
2023-02-17T02:53:57.969Z,46.56
2023-02-17T02:54:57.972Z,43.32
2023-02-17T02:55:57.985Z,43.82
2023-02-17T02:56:57.955Z,47.95
2023-02-17T02:57:57.947Z,52.33
2023-02-17T02:58:57.940Z,60.47
2023-02-17T02:59:57.928Z,61.28
2023-02-17T03:00:57.975Z,61.04
2023-02-17T03:01:57.923Z,61.69
2023-02-17T03:02:57.908Z,61.82
2023-02-17T03:03:57.960Z,61.40
2023-02-17T03:04:57.890Z,61.40
2023-02-17T03:05:57.906Z,59.91
2023-02-17T03:06:57.887Z,61.12
2023-02-17T03:07:57.870Z,59.96
2023-02-17T03:08:57.866Z,59.24
2023-02-17T03:09:57.857Z,59.99
2023-02-17T03:10:57.842Z,58.63
2023-02-17T03:11:57.870Z,57.85
2023-02-17T03:12:57.831Z,58.46
2023-02-17T03:13:57.823Z,58.37
2023-02-17T03:14:57.825Z,56.84
2023-02-17T03:15:57.817Z,56.47
2023-02-17T03:16:57.841Z,56.58
2023-02-17T03:17:57.799Z,51.97
2023-02-17T03:18:57.793Z,49.05
2023-02-17T03:19:57.781Z,48.81
2023-02-17T03:20:57.765Z,48.95
2023-02-17T03:21:57.792Z,44.03
2023-02-17T03:22:57.755Z,44.57
2023-02-17T03:23:57.740Z,46.80
2023-02-17T03:24:57.739Z,42.81
2023-02-17T03:25:57.731Z,44.95
2023-02-17T03:26:57.749Z,49.10
2023-02-17T03:27:57.710Z,45.71
2023-02-17T03:28:57.703Z,42.84
2023-02-17T03:29:57.719Z,41.73
2023-02-17T03:30:57.688Z,43.66
2023-02-17T03:31:57.849Z,47.01
2023-02-17T03:32:57.674Z,49.23
2023-02-17T03:33:57.689Z,46.88
2023-02-17T03:34:57.688Z,47.00
2023-02-17T03:35:57.652Z,47.26
2023-02-17T03:36:57.668Z,55.26
2023-02-17T03:37:57.651Z,47.91
2023-02-17T03:38:57.632Z,46.67
2023-02-17T03:39:57.621Z,49.57
2023-02-17T03:40:57.611Z,44.42
2023-02-17T03:41:57.650Z,50.96
2023-02-17T03:42:57.617Z,49.19
2023-02-17T03:43:57.587Z,44.87
2023-02-17T03:44:57.596Z,52.93
2023-02-17T03:45:57.696Z,49.56
2023-02-17T03:46:57.622Z,52.24
2023-02-17T03:47:57.573Z,48.58
2023-02-17T03:48:57.559Z,44.23
2023-02-17T03:49:58.558Z,48.57
2023-02-17T03:50:57.535Z,58.95
2023-02-17T03:51:57.560Z,47.77
2023-02-17T03:52:57.536Z,43.25
2023-02-17T03:53:57.511Z,53.32
2023-02-17T03:54:58.504Z,47.35
2023-02-17T03:55:57.506Z,54.25
2023-02-17T03:56:57.535Z,45.78
2023-02-17T03:57:57.492Z,52.27
2023-02-17T03:58:57.480Z,48.36
2023-02-17T03:59:57.472Z,58.36
2023-02-17T04:00:57.465Z,52.43
2023-02-17T04:01:58.308Z,48.18
2023-02-17T04:02:57.445Z,49.52
2023-02-17T04:03:57.519Z,48.86
2023-02-17T04:04:57.457Z,48.88
2023-02-17T04:05:57.433Z,47.28
2023-02-17T04:06:57.442Z,52.17
2023-02-17T04:07:57.415Z,49.05
2023-02-17T04:08:57.405Z,44.85
2023-02-17T04:09:57.394Z,48.68
2023-02-17T04:10:57.405Z,52.96
2023-02-17T04:11:57.412Z,50.27
2023-02-17T04:12:57.371Z,52.12
2023-02-17T04:13:57.377Z,50.43
2023-02-17T04:14:57.353Z,52.08
2023-02-17T04:15:58.835Z,54.04
2023-02-17T04:16:57.337Z,52.10
2023-02-17T04:17:57.371Z,51.62
2023-02-17T04:18:57.334Z,50.29
2023-02-17T04:19:57.318Z,55.35
2023-02-17T04:20:57.313Z,53.03
2023-02-17T04:21:57.309Z,61.88
2023-02-17T04:22:57.326Z,52.91
2023-02-17T04:23:57.295Z,53.90
2023-02-17T04:24:57.275Z,51.35
2023-02-17T04:25:57.303Z,49.22
2023-02-17T04:26:57.264Z,48.62
2023-02-17T04:27:57.285Z,54.76
2023-02-17T04:28:57.239Z,51.37
2023-02-17T04:29:57.263Z,56.31
2023-02-17T04:30:57.292Z,50.09
2023-02-17T04:31:57.553Z,50.90
2023-02-17T04:32:57.809Z,55.86
2023-02-17T04:33:57.213Z,55.78
2023-02-17T04:34:57.206Z,56.67
2023-02-17T04:35:57.195Z,55.01
2023-02-17T04:36:57.205Z,60.43
2023-02-17T04:37:57.205Z,54.39
2023-02-17T04:38:57.169Z,54.96
2023-02-17T04:39:57.158Z,57.94
2023-02-17T04:40:57.177Z,57.21
2023-02-17T04:41:57.149Z,55.50
2023-02-17T04:42:57.171Z,53.20
2023-02-17T04:43:57.228Z,60.76
2023-02-17T04:44:57.130Z,50.09
2023-02-17T04:45:57.168Z,59.97
2023-02-17T04:46:57.118Z,57.35
2023-02-17T04:47:57.132Z,54.36
2023-02-17T04:48:57.097Z,56.57
2023-02-17T04:49:57.085Z,52.73
2023-02-17T04:50:57.107Z,52.05
2023-02-17T04:51:57.063Z,55.27
2023-02-17T04:52:57.085Z,60.34
2023-02-17T04:53:57.055Z,53.00
2023-02-17T04:54:57.045Z,54.47
2023-02-17T04:55:57.038Z,51.02
2023-02-17T04:56:57.041Z,57.09
2023-02-17T04:57:57.049Z,59.25
2023-02-17T04:58:57.013Z,54.35
2023-02-17T04:59:57.002Z,51.88
2023-02-17T05:00:56.993Z,51.51
2023-02-17T05:01:56.996Z,55.43
2023-02-17T05:02:57.005Z,50.84
2023-02-17T05:03:56.979Z,59.11
2023-02-17T05:04:56.994Z,53.93
2023-02-17T05:05:56.953Z,58.50
2023-02-17T05:06:56.954Z,52.34
2023-02-17T05:07:56.968Z,54.59
2023-02-17T05:08:56.947Z,46.94
2023-02-17T05:09:56.923Z,53.05
2023-02-17T05:10:56.924Z,58.06
2023-02-17T05:11:56.913Z,55.07
2023-02-17T05:12:56.929Z,56.22
2023-02-17T05:13:56.896Z,53.10
2023-02-17T05:14:56.892Z,60.45
2023-02-17T05:15:56.954Z,52.86
2023-02-17T05:16:56.911Z,55.23
2023-02-17T05:17:56.890Z,58.90
2023-02-17T05:18:56.857Z,57.10
2023-02-17T05:19:56.851Z,54.64
2023-02-17T05:20:56.843Z,55.91
2023-02-17T05:21:56.851Z,53.62
2023-02-17T05:22:57.856Z,53.02
2023-02-17T05:23:56.844Z,57.32
2023-02-17T05:24:56.813Z,59.76
2023-02-17T05:25:56.838Z,52.04
2023-02-17T05:26:56.803Z,57.06
2023-02-17T05:27:56.824Z,56.75
2023-02-17T05:28:56.788Z,56.23
2023-02-17T05:29:56.858Z,48.82
2023-02-17T05:30:57.503Z,56.62
2023-02-17T05:31:56.768Z,51.41
2023-02-17T05:32:56.784Z,57.69
2023-02-17T05:33:56.753Z,55.95
2023-02-17T05:34:56.748Z,59.59
2023-02-17T05:35:56.735Z,60.46
2023-02-17T05:36:56.726Z,58.16
2023-02-17T05:37:56.747Z,52.67
2023-02-17T05:38:56.715Z,55.78
2023-02-17T05:39:56.701Z,55.31
2023-02-17T05:40:56.700Z,56.14
2023-02-17T05:41:56.792Z,62.94
2023-02-17T05:42:57.727Z,57.89
2023-02-17T05:43:56.675Z,60.01
2023-02-17T05:44:56.661Z,56.38
2023-02-17T05:45:56.658Z,55.43
2023-02-17T05:46:56.650Z,57.54
2023-02-17T05:47:56.667Z,54.06
2023-02-17T05:48:56.661Z,56.40
2023-02-17T05:49:56.631Z,57.39
2023-02-17T05:50:56.625Z,57.26
2023-02-17T05:51:56.637Z,54.20
2023-02-17T05:52:56.636Z,57.87
2023-02-17T05:53:56.597Z,57.72
2023-02-17T05:54:56.593Z,53.12
2023-02-17T05:55:56.584Z,56.80
2023-02-17T05:56:56.589Z,62.15
2023-02-17T05:57:56.604Z,54.96
2023-02-17T05:58:56.561Z,57.50
2023-02-17T05:59:56.566Z,58.53
2023-02-17T06:00:56.546Z,53.50
2023-02-17T06:01:56.533Z,60.43
2023-02-17T06:02:56.627Z,58.76
2023-02-17T06:03:56.529Z,56.07
2023-02-17T06:04:56.697Z,57.36
2023-02-17T06:05:56.527Z,61.27
2023-02-17T06:06:56.514Z,54.48
2023-02-17T06:07:56.523Z,56.15
2023-02-17T06:08:56.492Z,57.70
2023-02-17T06:09:56.477Z,59.21
2023-02-17T06:10:56.475Z,57.25
2023-02-17T06:11:56.466Z,58.16
2023-02-17T06:12:56.487Z,58.61
2023-02-17T06:13:56.461Z,56.40
2023-02-17T06:14:56.437Z,58.06
2023-02-17T06:15:56.505Z,57.04
2023-02-17T06:16:56.425Z,57.55
2023-02-17T06:17:56.481Z,56.43
2023-02-17T06:18:56.408Z,53.81
2023-02-17T06:19:56.402Z,61.33
2023-02-17T06:20:56.398Z,56.30
2023-02-17T06:21:56.379Z,55.31
2023-02-17T06:22:56.421Z,58.39
2023-02-17T06:23:56.375Z,58.26
2023-02-17T06:24:56.362Z,57.04
2023-02-17T06:25:56.351Z,57.72
2023-02-17T06:26:56.349Z,55.26
2023-02-17T06:27:56.364Z,58.24
2023-02-17T06:28:56.325Z,54.95
2023-02-17T06:29:56.331Z,56.84
2023-02-17T06:30:56.339Z,57.86
2023-02-17T06:31:56.413Z,57.69
2023-02-17T06:32:56.336Z,55.72
2023-02-17T06:33:56.297Z,56.82
2023-02-17T06:34:56.292Z,60.13
2023-02-17T06:35:56.272Z,58.89
2023-02-17T06:36:56.279Z,62.46
2023-02-17T06:37:56.317Z,59.25
2023-02-17T06:38:56.254Z,60.58
2023-02-17T06:39:56.239Z,62.26
2023-02-17T06:40:56.243Z,60.78
2023-02-17T06:41:56.249Z,61.65
2023-02-17T06:42:56.606Z,62.07
2023-02-17T06:43:56.209Z,61.45
2023-02-17T06:44:56.203Z,62.65
2023-02-17T06:45:56.282Z,61.11
2023-02-17T06:46:56.185Z,64.13
2023-02-17T06:47:56.219Z,61.49
2023-02-17T06:48:56.170Z,60.89
2023-02-17T06:49:56.154Z,60.54
2023-02-17T06:50:56.165Z,60.92
2023-02-17T06:51:56.154Z,60.81
2023-02-17T06:52:56.215Z,61.51
2023-02-17T06:53:56.129Z,61.24
2023-02-17T06:54:56.134Z,60.97
2023-02-17T06:55:56.127Z,64.48
2023-02-17T06:56:56.170Z,63.28
2023-02-17T06:57:56.093Z,61.20
2023-02-17T06:58:56.116Z,61.53
2023-02-17T06:59:56.169Z,60.68
2023-02-17T07:00:56.072Z,61.19
2023-02-17T07:01:56.183Z,61.33
2023-02-17T07:02:56.162Z,60.92
2023-02-17T07:03:56.083Z,60.97
2023-02-17T07:04:56.053Z,60.49
2023-02-17T07:05:56.049Z,64.50
2023-02-17T07:06:56.036Z,61.88
2023-02-17T07:07:56.022Z,61.88
2023-02-17T07:08:56.053Z,61.53
2023-02-17T07:09:56.013Z,60.83
2023-02-17T07:10:56.024Z,61.59
2023-02-17T07:11:55.983Z,62.34
2023-02-17T07:12:56.995Z,62.87
2023-02-17T07:13:56.029Z,64.13
2023-02-17T07:14:55.974Z,61.56
2023-02-17T07:15:55.964Z,60.57
2023-02-17T07:16:55.961Z,62.39
2023-02-17T07:17:55.960Z,59.50
2023-02-17T07:18:55.994Z,60.53
2023-02-17T07:19:55.946Z,61.07
2023-02-17T07:20:55.940Z,60.91
2023-02-17T07:21:55.921Z,59.38
2023-02-17T07:22:55.947Z,58.66
2023-02-17T07:23:55.943Z,58.66
2023-02-17T07:24:55.911Z,58.23
2023-02-17T07:25:55.896Z,56.49
2023-02-17T07:26:55.888Z,62.63
2023-02-17T07:27:55.885Z,53.38
2023-02-17T07:28:55.902Z,51.77
2023-02-17T07:29:55.922Z,55.28
2023-02-17T07:30:55.895Z,58.24
2023-02-17T07:31:55.904Z,57.31
2023-02-17T07:32:55.845Z,56.05
2023-02-17T07:33:55.868Z,55.79
2023-02-17T07:34:55.842Z,54.28
2023-02-17T07:35:55.831Z,56.58
2023-02-17T07:36:55.840Z,53.59
2023-02-17T07:37:55.840Z,53.58
2023-02-17T07:38:55.838Z,61.59
2023-02-17T07:39:55.821Z,54.53
2023-02-17T07:40:55.820Z,56.60
2023-02-17T07:41:55.788Z,54.47
2023-02-17T07:42:55.773Z,55.58
2023-02-17T07:43:55.812Z,57.38
2023-02-17T07:44:55.758Z,54.14
2023-02-17T07:45:57.690Z,56.12
2023-02-17T07:46:55.767Z,64.06
2023-02-17T07:47:55.734Z,54.50
2023-02-17T07:48:55.750Z,55.00
2023-02-17T07:49:55.720Z,54.02
2023-02-17T07:50:55.702Z,54.71
2023-02-17T07:51:55.697Z,61.72
2023-02-17T07:52:55.688Z,56.95
2023-02-17T07:53:55.732Z,56.76
2023-02-17T07:54:55.708Z,49.29
2023-02-17T07:55:55.677Z,56.86
2023-02-17T07:56:55.678Z,60.65
2023-02-17T07:57:55.726Z,58.94
2023-02-17T07:58:55.689Z,54.91
2023-02-17T07:59:55.650Z,59.46
2023-02-17T08:00:55.659Z,55.79
2023-02-17T08:01:55.708Z,57.06
2023-02-17T08:02:55.636Z,55.59
2023-02-17T08:03:55.665Z,55.37
2023-02-17T08:04:55.623Z,56.34
2023-02-17T08:05:55.657Z,54.78
2023-02-17T08:06:55.604Z,57.67
2023-02-17T08:07:55.587Z,54.36
2023-02-17T08:08:55.654Z,53.10
2023-02-17T08:09:55.598Z,53.81
2023-02-17T08:10:55.588Z,56.70
2023-02-17T08:11:55.573Z,57.79
2023-02-17T08:12:55.547Z,54.65
2023-02-17T08:13:55.574Z,55.76
2023-02-17T08:14:55.536Z,54.61
2023-02-17T08:15:55.534Z,56.27
2023-02-17T08:16:55.586Z,56.18
2023-02-17T08:17:55.507Z,57.39
2023-02-17T08:18:55.578Z,54.78
2023-02-17T08:19:55.510Z,56.44
2023-02-17T08:20:55.490Z,60.02
2023-02-17T08:21:55.519Z,53.58
2023-02-17T08:22:55.497Z,53.76
2023-02-17T08:23:55.508Z,58.02
2023-02-17T08:24:55.460Z,55.09
2023-02-17T08:25:55.441Z,56.73
2023-02-17T08:26:55.447Z,53.77
2023-02-17T08:27:55.431Z,52.95
2023-02-17T08:28:55.460Z,55.43
2023-02-17T08:29:55.886Z,57.83
2023-02-17T08:30:56.520Z,52.77
2023-02-17T08:31:55.491Z,55.39
2023-02-17T08:32:55.409Z,51.81
2023-02-17T08:33:55.484Z,55.13
2023-02-17T08:34:56.373Z,56.28
2023-02-17T08:35:55.413Z,55.41
2023-02-17T08:36:55.393Z,55.14
2023-02-17T08:37:55.350Z,57.59
2023-02-17T08:38:55.406Z,54.43
2023-02-17T08:39:55.358Z,60.05
2023-02-17T08:40:55.348Z,61.60
2023-02-17T08:41:55.360Z,54.30
2023-02-17T08:42:55.321Z,52.15
2023-02-17T08:43:55.374Z,56.98
2023-02-17T08:44:55.348Z,60.35
2023-02-17T08:45:56.322Z,52.36
2023-02-17T08:46:55.325Z,56.29
2023-02-17T08:47:55.363Z,55.37
2023-02-17T08:48:55.329Z,54.76
2023-02-17T08:49:55.269Z,57.20
2023-02-17T08:50:55.282Z,55.81
2023-02-17T08:51:55.279Z,54.85
2023-02-17T08:52:55.257Z,56.62
2023-02-17T08:53:55.292Z,54.46
2023-02-17T08:54:55.261Z,57.98
2023-02-17T08:55:55.257Z,54.31
2023-02-17T08:56:55.209Z,55.42
2023-02-17T08:57:55.325Z,57.25
2023-02-17T08:58:55.235Z,55.29
2023-02-17T08:59:55.247Z,54.47
2023-02-17T09:00:55.208Z,59.16
2023-02-17T09:01:55.280Z,54.77
2023-02-17T09:02:55.186Z,55.43
2023-02-17T09:03:55.169Z,57.05
2023-02-17T09:04:55.219Z,53.92
2023-02-17T09:05:55.140Z,54.04
2023-02-17T09:06:55.149Z,57.09
2023-02-17T09:07:55.136Z,57.20
2023-02-17T09:08:55.136Z,59.05
2023-02-17T09:09:55.161Z,56.99
2023-02-17T09:10:55.100Z,55.84
2023-02-17T09:11:55.115Z,53.87
2023-02-17T09:12:55.104Z,55.20
2023-02-17T09:13:55.097Z,55.36
2023-02-17T09:14:55.104Z,54.86
2023-02-17T09:15:55.100Z,55.22
2023-02-17T09:16:55.052Z,53.67
2023-02-17T09:17:55.044Z,58.44
2023-02-17T09:18:55.091Z,57.21
2023-02-17T09:19:55.082Z,55.82
2023-02-17T09:20:55.065Z,58.23
2023-02-17T09:21:55.098Z,57.59
2023-02-17T09:22:55.000Z,57.05
2023-02-17T09:23:54.987Z,57.15
2023-02-17T09:24:55.018Z,59.48
2023-02-17T09:25:54.983Z,52.66
2023-02-17T09:26:54.981Z,55.76
2023-02-17T09:27:54.997Z,58.08
2023-02-17T09:28:54.967Z,55.45
2023-02-17T09:29:55.066Z,54.99
2023-02-17T09:30:54.984Z,54.57
2023-02-17T09:31:55.072Z,56.48
2023-02-17T09:32:54.939Z,52.54
2023-02-17T09:33:54.928Z,54.53
2023-02-17T09:34:54.960Z,54.97
2023-02-17T09:35:54.908Z,57.29
2023-02-17T09:36:54.987Z,55.03
2023-02-17T09:37:54.886Z,58.65
2023-02-17T09:38:54.939Z,54.65
2023-02-17T09:39:54.913Z,54.47
2023-02-17T09:40:54.881Z,54.78
2023-02-17T09:41:54.915Z,56.80
2023-02-17T09:42:54.931Z,54.48
2023-02-17T09:43:54.843Z,59.45
2023-02-17T09:44:54.889Z,56.45
2023-02-17T09:45:54.853Z,52.21
2023-02-17T09:47:01.660Z,55.46
2023-02-17T09:47:56.868Z,54.55
2023-02-17T09:48:54.893Z,53.65
2023-02-17T09:49:54.936Z,59.61
2023-02-17T09:50:54.787Z,56.46
2023-02-17T09:51:55.837Z,57.04
2023-02-17T09:52:54.806Z,51.39
2023-02-17T09:53:54.779Z,54.77
2023-02-17T09:54:54.802Z,55.75
2023-02-17T09:55:54.782Z,56.98
2023-02-17T09:56:54.830Z,54.88
2023-02-17T09:57:54.803Z,55.76
2023-02-17T09:58:54.782Z,54.62
2023-02-17T09:59:54.780Z,56.24
2023-02-17T10:00:54.802Z,58.15
2023-02-17T10:01:54.760Z,55.87
2023-02-17T10:02:54.759Z,56.30
2023-02-17T10:03:54.780Z,55.16
2023-02-17T10:04:54.800Z,56.41
2023-02-17T10:05:54.724Z,54.79
2023-02-17T10:06:54.724Z,55.85
2023-02-17T10:07:54.675Z,55.74
2023-02-17T10:08:54.734Z,56.17
2023-02-17T10:09:54.740Z,56.88
2023-02-17T10:10:54.798Z,57.31
2023-02-17T10:11:54.696Z,57.24
2023-02-17T10:12:54.683Z,56.18
2023-02-17T10:13:54.673Z,56.44
2023-02-17T10:14:54.676Z,59.74
2023-02-17T10:15:54.779Z,55.39
2023-02-17T10:16:54.663Z,54.70
2023-02-17T10:17:54.680Z,55.57
2023-02-17T10:18:54.633Z,53.87
2023-02-17T10:19:54.670Z,56.21
2023-02-17T10:20:54.604Z,57.37
2023-02-17T10:21:54.590Z,56.58
2023-02-17T10:22:54.644Z,58.23
2023-02-17T10:23:54.575Z,56.00
2023-02-17T10:24:54.621Z,56.84
2023-02-17T10:25:54.641Z,53.89
2023-02-17T10:26:54.557Z,54.50
2023-02-17T10:27:54.533Z,56.08
2023-02-17T10:28:54.539Z,57.18
2023-02-17T10:29:54.662Z,56.73
2023-02-17T10:30:54.638Z,59.31
2023-02-17T10:31:54.690Z,56.49
2023-02-17T10:32:54.532Z,54.59
2023-02-17T10:33:54.501Z,54.93
2023-02-17T10:34:54.554Z,57.04
2023-02-17T10:35:54.535Z,58.79
2023-02-17T10:36:54.459Z,57.24
2023-02-17T10:37:54.485Z,52.92
2023-02-17T10:38:54.454Z,56.37
2023-02-17T10:39:54.450Z,54.89
2023-02-17T10:40:54.451Z,60.31
2023-02-17T10:41:54.414Z,56.50
2023-02-17T10:42:54.440Z,56.79
2023-02-17T10:43:54.416Z,58.33
2023-02-17T10:44:54.528Z,59.77
2023-02-17T10:45:54.483Z,57.62
2023-02-17T10:46:54.450Z,57.75
2023-02-17T10:47:54.388Z,58.52
2023-02-17T10:48:54.371Z,57.85
2023-02-17T10:49:54.365Z,56.87
2023-02-17T10:50:54.398Z,63.99
2023-02-17T10:51:54.363Z,55.89
2023-02-17T10:52:54.351Z,56.50
2023-02-17T10:53:54.397Z,53.65
2023-02-17T10:54:54.343Z,55.92
2023-02-17T10:55:54.344Z,60.00
2023-02-17T10:56:54.325Z,61.43
2023-02-17T10:57:54.305Z,54.29
2023-02-17T10:58:54.306Z,54.68
2023-02-17T10:59:54.285Z,56.71
2023-02-17T11:00:54.421Z,55.55
2023-02-17T11:01:54.266Z,56.63
2023-02-17T11:02:54.278Z,57.00
2023-02-17T11:03:54.319Z,58.94
2023-02-17T11:04:54.265Z,54.54
2023-02-17T11:05:54.288Z,56.35
2023-02-17T11:06:54.228Z,54.97
2023-02-17T11:07:54.236Z,56.89
2023-02-17T11:08:54.223Z,56.60
2023-02-17T11:09:54.220Z,54.34
2023-02-17T11:10:54.253Z,57.93
2023-02-17T11:11:54.222Z,59.22
2023-02-17T11:12:54.216Z,57.79
2023-02-17T11:13:54.181Z,55.92
2023-02-17T11:14:54.180Z,57.35
2023-02-17T11:15:54.236Z,54.05
2023-02-17T11:16:54.187Z,56.73
2023-02-17T11:17:54.156Z,58.97
2023-02-17T11:18:54.154Z,55.70
2023-02-17T11:19:54.151Z,61.60
2023-02-17T11:20:54.166Z,56.53
2023-02-17T11:21:54.150Z,59.46
2023-02-17T11:22:54.127Z,55.24
2023-02-17T11:23:54.109Z,55.48
2023-02-17T11:24:54.115Z,55.47
2023-02-17T11:25:54.149Z,57.93
2023-02-17T11:26:54.081Z,56.72
2023-02-17T11:27:54.084Z,61.77
2023-02-17T11:28:54.090Z,58.86
2023-02-17T11:29:54.074Z,55.72
2023-02-17T11:30:54.134Z,56.28
2023-02-17T11:31:54.156Z,58.11
2023-02-17T11:32:54.045Z,56.02
2023-02-17T11:33:56.721Z,57.76
2023-02-17T11:34:54.026Z,55.60
2023-02-17T11:35:54.025Z,57.81
2023-02-17T11:36:54.040Z,55.68
2023-02-17T11:37:53.999Z,57.59
2023-02-17T11:38:53.996Z,55.16
2023-02-17T11:39:53.991Z,57.46
2023-02-17T11:40:53.997Z,57.52
2023-02-17T11:41:54.026Z,57.92
2023-02-17T11:42:53.985Z,57.91
2023-02-17T11:43:54.023Z,57.34
2023-02-17T11:44:53.949Z,58.02
2023-02-17T11:45:53.973Z,57.64
2023-02-17T11:46:53.959Z,58.91
2023-02-17T11:47:53.932Z,57.99
2023-02-17T11:48:53.939Z,60.90
2023-02-17T11:49:53.940Z,56.50
2023-02-17T11:50:53.953Z,58.26
2023-02-17T11:51:53.919Z,57.85
2023-02-17T11:52:53.917Z,60.50
2023-02-17T11:53:53.915Z,57.40
2023-02-17T11:54:53.923Z,56.97
2023-02-17T11:55:53.876Z,57.86
2023-02-17T11:56:53.926Z,61.83
2023-02-17T11:57:53.860Z,55.86
2023-02-17T11:58:53.845Z,57.41
2023-02-17T11:59:53.832Z,56.50
2023-02-17T12:00:53.824Z,60.44
2023-02-17T12:01:53.937Z,57.08
2023-02-17T12:02:53.844Z,58.12
2023-02-17T12:03:53.810Z,56.99
2023-02-17T12:04:53.848Z,57.42
2023-02-17T12:05:53.801Z,56.61
2023-02-17T12:06:53.806Z,60.08
2023-02-17T12:07:53.809Z,56.90
2023-02-17T12:08:53.783Z,57.23
2023-02-17T12:09:53.759Z,55.96
2023-02-17T12:10:53.744Z,60.77
2023-02-17T12:11:53.781Z,58.20
2023-02-17T12:12:53.749Z,56.72
2023-02-17T12:13:53.744Z,58.86
2023-02-17T12:14:53.721Z,57.82
2023-02-17T12:15:53.821Z,57.36
2023-02-17T12:16:53.767Z,56.71
2023-02-17T12:17:53.730Z,56.85
2023-02-17T12:18:53.688Z,58.50
2023-02-17T12:19:53.677Z,57.75
2023-02-17T12:20:53.668Z,56.07
2023-02-17T12:21:53.718Z,59.01
2023-02-17T12:22:53.658Z,58.12
2023-02-17T12:23:53.650Z,56.75
2023-02-17T12:24:53.647Z,57.11
2023-02-17T12:25:53.638Z,58.84
2023-02-17T12:26:53.645Z,55.60
2023-02-17T12:27:54.624Z,56.19
2023-02-17T12:28:53.610Z,56.45
2023-02-17T12:29:53.610Z,56.42
2023-02-17T12:30:53.768Z,56.03
2023-02-17T12:31:53.739Z,54.49
2023-02-17T12:32:53.570Z,57.98
2023-02-17T12:33:53.577Z,55.10
2023-02-17T12:34:53.633Z,57.67
2023-02-17T12:35:53.563Z,57.33
2023-02-17T12:36:53.543Z,55.81
2023-02-17T12:37:53.573Z,56.91
2023-02-17T12:38:53.534Z,55.32
2023-02-17T12:39:53.551Z,56.91
2023-02-17T12:40:53.582Z,56.69
2023-02-17T12:41:53.524Z,56.97
2023-02-17T12:42:53.526Z,58.10
2023-02-17T12:43:53.496Z,57.61
2023-02-17T12:44:53.523Z,60.33
2023-02-17T12:45:53.527Z,56.98
2023-02-17T12:46:53.470Z,55.47
2023-02-17T12:47:54.498Z,54.91
2023-02-17T12:48:53.457Z,59.42
2023-02-17T12:49:53.449Z,55.58
2023-02-17T12:50:53.433Z,57.29
2023-02-17T12:51:53.486Z,58.08
2023-02-17T12:52:53.475Z,59.04